sensor_id;sensor_type;location;lat;lon;timestamp;P1;durP1;ratioP1;P2;durP2;ratioP2
31130;SDS011;20292;50.944;4.034;2022-12-11T00:00:43;38.35;;;18.05;;
31130;SDS011;20292;50.944;4.034;2022-12-11T00:03:09;44.33;;;20.33;;
31130;SDS011;20292;50.944;4.034;2022-12-11T00:05:37;39.13;;;20.00;;
31130;SDS011;20292;50.944;4.034;2022-12-11T00:08:03;42.90;;;20.23;;
31130;SDS011;20292;50.944;4.034;2022-12-11T00:10:29;40.65;;;20.60;;
31130;SDS011;20292;50.944;4.034;2022-12-11T00:12:55;49.65;;;21.95;;
31130;SDS011;20292;50.944;4.034;2022-12-11T00:15:20;43.80;;;21.92;;
31130;SDS011;20292;50.944;4.034;2022-12-11T00:17:46;41.50;;;19.63;;
31130;SDS011;20292;50.944;4.034;2022-12-11T00:20:11;41.40;;;20.20;;
31130;SDS011;20292;50.944;4.034;2022-12-11T00:22:37;38.25;;;19.45;;
31130;SDS011;20292;50.944;4.034;2022-12-11T00:25:02;44.88;;;21.80;;
31130;SDS011;20292;50.944;4.034;2022-12-11T00:27:28;48.00;;;20.63;;
31130;SDS011;20292;50.944;4.034;2022-12-11T00:29:54;39.53;;;20.27;;
31130;SDS011;20292;50.944;4.034;2022-12-11T00:32:19;43.58;;;20.40;;
31130;SDS011;20292;50.944;4.034;2022-12-11T00:34:45;42.33;;;19.83;;
31130;SDS011;20292;50.944;4.034;2022-12-11T00:37:10;45.83;;;21.38;;
31130;SDS011;20292;50.944;4.034;2022-12-11T00:39:36;47.75;;;20.25;;
31130;SDS011;20292;50.944;4.034;2022-12-11T00:42:03;42.88;;;19.77;;
31130;SDS011;20292;50.944;4.034;2022-12-11T00:44:29;40.55;;;19.92;;
31130;SDS011;20292;50.944;4.034;2022-12-11T00:46:55;41.17;;;20.20;;
31130;SDS011;20292;50.944;4.034;2022-12-11T00:49:21;42.17;;;20.20;;
31130;SDS011;20292;50.944;4.034;2022-12-11T00:51:46;43.92;;;19.45;;
31130;SDS011;20292;50.944;4.034;2022-12-11T00:54:12;43.47;;;20.38;;
31130;SDS011;20292;50.944;4.034;2022-12-11T00:56:37;41.03;;;19.70;;
31130;SDS011;20292;50.944;4.034;2022-12-11T00:59:03;41.42;;;19.83;;
31130;SDS011;20292;50.944;4.034;2022-12-11T01:01:29;41.38;;;20.55;;
31130;SDS011;20292;50.944;4.034;2022-12-11T01:03:54;41.65;;;19.73;;
31130;SDS011;20292;50.944;4.034;2022-12-11T01:06:22;43.17;;;18.95;;
31130;SDS011;20292;50.944;4.034;2022-12-11T01:08:49;48.47;;;20.52;;
31130;SDS011;20292;50.944;4.034;2022-12-11T01:11:37;42.33;;;19.98;;
31130;SDS011;20292;50.944;4.034;2022-12-11T01:14:04;41.60;;;18.90;;
31130;SDS011;20292;50.944;4.034;2022-12-11T01:16:29;39.05;;;19.17;;
31130;SDS011;20292;50.944;4.034;2022-12-11T01:18:55;49.00;;;21.13;;
31130;SDS011;20292;50.944;4.034;2022-12-11T01:21:21;44.47;;;19.50;;
31130;SDS011;20292;50.944;4.034;2022-12-11T01:23:48;43.88;;;19.80;;
31130;SDS011;20292;50.944;4.034;2022-12-11T01:26:14;46.78;;;20.98;;
31130;SDS011;20292;50.944;4.034;2022-12-11T01:28:40;44.00;;;20.92;;
31130;SDS011;20292;50.944;4.034;2022-12-11T01:31:10;43.00;;;20.35;;
31130;SDS011;20292;50.944;4.034;2022-12-11T01:33:38;42.85;;;20.95;;
31130;SDS011;20292;50.944;4.034;2022-12-11T01:36:11;43.30;;;19.92;;
31130;SDS011;20292;50.944;4.034;2022-12-11T01:38:39;50.22;;;21.23;;
31130;SDS011;20292;50.944;4.034;2022-12-11T01:41:07;45.90;;;21.05;;
31130;SDS011;20292;50.944;4.034;2022-12-11T01:43:33;47.30;;;21.00;;
31130;SDS011;20292;50.944;4.034;2022-12-11T01:45:59;50.00;;;22.75;;
31130;SDS011;20292;50.944;4.034;2022-12-11T01:48:26;44.47;;;20.23;;
31130;SDS011;20292;50.944;4.034;2022-12-11T01:50:55;43.38;;;21.08;;
31130;SDS011;20292;50.944;4.034;2022-12-11T01:53:32;49.10;;;23.60;;
31130;SDS011;20292;50.944;4.034;2022-12-11T01:56:00;48.65;;;21.83;;
31130;SDS011;20292;50.944;4.034;2022-12-11T01:58:28;46.70;;;20.65;;
31130;SDS011;20292;50.944;4.034;2022-12-11T02:00:57;49.83;;;22.25;;
31130;SDS011;20292;50.944;4.034;2022-12-11T02:03:24;46.47;;;20.98;;
31130;SDS011;20292;50.944;4.034;2022-12-11T02:05:49;46.53;;;20.70;;
31130;SDS011;20292;50.944;4.034;2022-12-11T02:08:15;48.20;;;20.48;;
31130;SDS011;20292;50.944;4.034;2022-12-11T02:10:44;46.50;;;21.30;;
31130;SDS011;20292;50.944;4.034;2022-12-11T02:13:28;47.63;;;21.40;;
31130;SDS011;20292;50.944;4.034;2022-12-11T02:16:18;48.40;;;21.00;;
31130;SDS011;20292;50.944;4.034;2022-12-11T02:19:18;48.78;;;21.40;;
31130;SDS011;20292;50.944;4.034;2022-12-11T02:22:05;49.75;;;21.77;;
31130;SDS011;20292;50.944;4.034;2022-12-11T02:24:57;45.63;;;19.80;;
31130;SDS011;20292;50.944;4.034;2022-12-11T02:27:45;44.70;;;20.83;;
31130;SDS011;20292;50.944;4.034;2022-12-11T02:30:17;44.75;;;20.58;;
31130;SDS011;20292;50.944;4.034;2022-12-11T02:32:46;45.67;;;20.27;;
31130;SDS011;20292;50.944;4.034;2022-12-11T02:35:32;44.67;;;20.95;;
31130;SDS011;20292;50.944;4.034;2022-12-11T02:38:04;44.22;;;21.02;;
31130;SDS011;20292;50.944;4.034;2022-12-11T02:40:54;46.65;;;19.77;;
31130;SDS011;20292;50.944;4.034;2022-12-11T02:43:22;40.30;;;19.48;;
31130;SDS011;20292;50.944;4.034;2022-12-11T02:45:49;45.53;;;19.75;;
31130;SDS011;20292;50.944;4.034;2022-12-11T02:48:17;46.95;;;19.90;;
31130;SDS011;20292;50.944;4.034;2022-12-11T02:50:45;46.58;;;20.42;;
31130;SDS011;20292;50.944;4.034;2022-12-11T02:53:14;46.22;;;21.83;;
31130;SDS011;20292;50.944;4.034;2022-12-11T02:55:44;46.38;;;21.17;;
31130;SDS011;20292;50.944;4.034;2022-12-11T02:58:13;44.28;;;20.63;;
31130;SDS011;20292;50.944;4.034;2022-12-11T03:00:44;48.75;;;21.23;;
31130;SDS011;20292;50.944;4.034;2022-12-11T03:03:10;47.03;;;21.02;;
31130;SDS011;20292;50.944;4.034;2022-12-11T03:05:37;48.15;;;22.30;;
31130;SDS011;20292;50.944;4.034;2022-12-11T03:08:02;47.85;;;21.42;;
31130;SDS011;20292;50.944;4.034;2022-12-11T03:10:28;47.83;;;21.40;;
31130;SDS011;20292;50.944;4.034;2022-12-11T03:12:54;45.60;;;20.65;;
31130;SDS011;20292;50.944;4.034;2022-12-11T03:15:33;48.25;;;20.92;;
31130;SDS011;20292;50.944;4.034;2022-12-11T03:18:16;46.85;;;21.33;;
31130;SDS011;20292;50.944;4.034;2022-12-11T03:21:14;46.85;;;21.50;;
31130;SDS011;20292;50.944;4.034;2022-12-11T03:23:49;45.90;;;22.20;;
31130;SDS011;20292;50.944;4.034;2022-12-11T03:26:17;52.63;;;22.17;;
31130;SDS011;20292;50.944;4.034;2022-12-11T03:28:49;46.65;;;21.63;;
31130;SDS011;20292;50.944;4.034;2022-12-11T03:31:28;49.50;;;22.05;;
31130;SDS011;20292;50.944;4.034;2022-12-11T03:34:02;48.15;;;22.50;;
31130;SDS011;20292;50.944;4.034;2022-12-11T03:36:35;49.50;;;22.98;;
31130;SDS011;20292;50.944;4.034;2022-12-11T03:39:09;52.40;;;22.85;;
31130;SDS011;20292;50.944;4.034;2022-12-11T03:41:39;51.30;;;22.83;;
31130;SDS011;20292;50.944;4.034;2022-12-11T03:44:07;47.92;;;23.95;;
31130;SDS011;20292;50.944;4.034;2022-12-11T03:46:34;51.50;;;24.42;;
31130;SDS011;20292;50.944;4.034;2022-12-11T03:49:07;54.55;;;25.27;;
31130;SDS011;20292;50.944;4.034;2022-12-11T03:51:48;50.63;;;23.77;;
31130;SDS011;20292;50.944;4.034;2022-12-11T03:54:15;53.78;;;24.67;;
31130;SDS011;20292;50.944;4.034;2022-12-11T03:56:42;53.92;;;24.60;;
31130;SDS011;20292;50.944;4.034;2022-12-11T03:59:10;54.50;;;25.92;;
31130;SDS011;20292;50.944;4.034;2022-12-11T04:01:36;52.78;;;24.52;;
31130;SDS011;20292;50.944;4.034;2022-12-11T04:04:02;48.22;;;23.42;;
31130;SDS011;20292;50.944;4.034;2022-12-11T04:06:27;53.17;;;24.02;;
31130;SDS011;20292;50.944;4.034;2022-12-11T04:08:53;54.15;;;24.58;;
31130;SDS011;20292;50.944;4.034;2022-12-11T04:11:18;54.38;;;24.75;;
31130;SDS011;20292;50.944;4.034;2022-12-11T04:14:03;49.95;;;23.75;;
31130;SDS011;20292;50.944;4.034;2022-12-11T04:16:48;54.55;;;25.65;;
31130;SDS011;20292;50.944;4.034;2022-12-11T04:19:14;55.67;;;25.30;;
31130;SDS011;20292;50.944;4.034;2022-12-11T04:21:58;55.35;;;24.80;;
31130;SDS011;20292;50.944;4.034;2022-12-11T04:24:42;60.92;;;24.63;;
31130;SDS011;20292;50.944;4.034;2022-12-11T04:27:08;52.28;;;23.55;;
31130;SDS011;20292;50.944;4.034;2022-12-11T04:29:33;50.55;;;24.95;;
31130;SDS011;20292;50.944;4.034;2022-12-11T04:31:59;58.22;;;23.92;;
31130;SDS011;20292;50.944;4.034;2022-12-11T04:34:25;50.88;;;24.08;;
31130;SDS011;20292;50.944;4.034;2022-12-11T04:36:50;47.15;;;23.08;;
31130;SDS011;20292;50.944;4.034;2022-12-11T04:39:16;53.53;;;24.55;;
31130;SDS011;20292;50.944;4.034;2022-12-11T04:41:41;53.08;;;24.30;;
31130;SDS011;20292;50.944;4.034;2022-12-11T04:44:07;51.72;;;24.35;;
31130;SDS011;20292;50.944;4.034;2022-12-11T04:46:33;50.35;;;23.38;;
31130;SDS011;20292;50.944;4.034;2022-12-11T04:48:58;54.38;;;24.23;;
31130;SDS011;20292;50.944;4.034;2022-12-11T04:51:25;57.47;;;25.00;;
31130;SDS011;20292;50.944;4.034;2022-12-11T04:53:51;52.83;;;24.08;;
31130;SDS011;20292;50.944;4.034;2022-12-11T04:56:17;58.08;;;24.88;;
31130;SDS011;20292;50.944;4.034;2022-12-11T04:58:43;50.90;;;24.67;;
31130;SDS011;20292;50.944;4.034;2022-12-11T05:01:09;56.67;;;24.20;;
31130;SDS011;20292;50.944;4.034;2022-12-11T05:03:37;51.72;;;24.85;;
31130;SDS011;20292;50.944;4.034;2022-12-11T05:06:03;55.17;;;25.38;;
31130;SDS011;20292;50.944;4.034;2022-12-11T05:08:29;53.35;;;25.20;;
31130;SDS011;20292;50.944;4.034;2022-12-11T05:10:55;54.55;;;25.80;;
31130;SDS011;20292;50.944;4.034;2022-12-11T05:13:22;55.95;;;26.60;;
31130;SDS011;20292;50.944;4.034;2022-12-11T05:15:47;57.88;;;26.20;;
31130;SDS011;20292;50.944;4.034;2022-12-11T05:18:13;58.70;;;26.23;;
31130;SDS011;20292;50.944;4.034;2022-12-11T05:20:38;57.28;;;27.13;;
31130;SDS011;20292;50.944;4.034;2022-12-11T05:23:04;57.13;;;26.92;;
31130;SDS011;20292;50.944;4.034;2022-12-11T05:25:29;60.75;;;28.75;;
31130;SDS011;20292;50.944;4.034;2022-12-11T05:27:55;60.97;;;28.52;;
31130;SDS011;20292;50.944;4.034;2022-12-11T05:30:21;65.07;;;27.63;;
31130;SDS011;20292;50.944;4.034;2022-12-11T05:32:46;66.25;;;28.23;;
31130;SDS011;20292;50.944;4.034;2022-12-11T05:35:12;72.47;;;30.33;;
31130;SDS011;20292;50.944;4.034;2022-12-11T05:37:37;64.43;;;29.20;;
31130;SDS011;20292;50.944;4.034;2022-12-11T05:40:03;66.05;;;29.88;;
31130;SDS011;20292;50.944;4.034;2022-12-11T05:42:30;62.22;;;29.75;;
31130;SDS011;20292;50.944;4.034;2022-12-11T05:44:56;71.15;;;30.23;;
31130;SDS011;20292;50.944;4.034;2022-12-11T05:47:22;63.33;;;29.15;;
31130;SDS011;20292;50.944;4.034;2022-12-11T05:49:48;67.65;;;28.30;;
31130;SDS011;20292;50.944;4.034;2022-12-11T05:52:13;65.65;;;28.45;;
31130;SDS011;20292;50.944;4.034;2022-12-11T05:54:40;70.80;;;30.05;;
31130;SDS011;20292;50.944;4.034;2022-12-11T05:57:06;67.03;;;29.50;;
31130;SDS011;20292;50.944;4.034;2022-12-11T05:59:31;72.82;;;30.27;;
31130;SDS011;20292;50.944;4.034;2022-12-11T06:01:57;71.18;;;29.73;;
31130;SDS011;20292;50.944;4.034;2022-12-11T06:04:23;71.97;;;31.00;;
31130;SDS011;20292;50.944;4.034;2022-12-11T06:06:48;70.28;;;31.98;;
31130;SDS011;20292;50.944;4.034;2022-12-11T06:09:14;68.90;;;30.35;;
31130;SDS011;20292;50.944;4.034;2022-12-11T06:11:41;71.60;;;31.15;;
31130;SDS011;20292;50.944;4.034;2022-12-11T06:14:07;67.55;;;30.55;;
31130;SDS011;20292;50.944;4.034;2022-12-11T06:16:34;72.90;;;31.75;;
31130;SDS011;20292;50.944;4.034;2022-12-11T06:18:59;74.43;;;31.08;;
31130;SDS011;20292;50.944;4.034;2022-12-11T06:21:26;75.30;;;31.05;;
31130;SDS011;20292;50.944;4.034;2022-12-11T06:23:54;74.10;;;31.35;;
31130;SDS011;20292;50.944;4.034;2022-12-11T06:26:21;75.32;;;31.13;;
31130;SDS011;20292;50.944;4.034;2022-12-11T06:28:48;72.25;;;30.63;;
31130;SDS011;20292;50.944;4.034;2022-12-11T06:31:14;68.65;;;30.23;;
31130;SDS011;20292;50.944;4.034;2022-12-11T06:33:39;63.83;;;29.58;;
31130;SDS011;20292;50.944;4.034;2022-12-11T06:36:06;72.88;;;30.65;;
31130;SDS011;20292;50.944;4.034;2022-12-11T06:38:34;73.47;;;31.75;;
31130;SDS011;20292;50.944;4.034;2022-12-11T06:41:02;72.28;;;31.77;;
31130;SDS011;20292;50.944;4.034;2022-12-11T06:43:30;70.47;;;30.00;;
31130;SDS011;20292;50.944;4.034;2022-12-11T06:45:56;72.60;;;31.30;;
31130;SDS011;20292;50.944;4.034;2022-12-11T06:48:21;76.85;;;30.63;;
31130;SDS011;20292;50.944;4.034;2022-12-11T06:50:47;72.57;;;31.35;;
31130;SDS011;20292;50.944;4.034;2022-12-11T06:53:13;72.13;;;31.88;;
31130;SDS011;20292;50.944;4.034;2022-12-11T06:55:40;72.93;;;31.55;;
31130;SDS011;20292;50.944;4.034;2022-12-11T06:58:06;69.47;;;31.35;;
31130;SDS011;20292;50.944;4.034;2022-12-11T07:00:33;71.75;;;31.15;;
31130;SDS011;20292;50.944;4.034;2022-12-11T07:03:00;71.75;;;31.23;;
31130;SDS011;20292;50.944;4.034;2022-12-11T07:05:25;64.82;;;28.98;;
31130;SDS011;20292;50.944;4.034;2022-12-11T07:07:54;68.22;;;28.77;;
31130;SDS011;20292;50.944;4.034;2022-12-11T07:10:20;69.40;;;28.35;;
31130;SDS011;20292;50.944;4.034;2022-12-11T07:12:46;60.83;;;28.15;;
31130;SDS011;20292;50.944;4.034;2022-12-11T07:15:11;55.47;;;27.15;;
31130;SDS011;20292;50.944;4.034;2022-12-11T07:17:37;55.90;;;26.13;;
31130;SDS011;20292;50.944;4.034;2022-12-11T07:20:03;63.45;;;27.17;;
31130;SDS011;20292;50.944;4.034;2022-12-11T07:22:29;57.30;;;26.20;;
31130;SDS011;20292;50.944;4.034;2022-12-11T07:24:54;62.15;;;28.23;;
31130;SDS011;20292;50.944;4.034;2022-12-11T07:27:20;64.43;;;27.20;;
31130;SDS011;20292;50.944;4.034;2022-12-11T07:29:46;61.58;;;26.77;;
31130;SDS011;20292;50.944;4.034;2022-12-11T07:32:12;61.17;;;27.20;;
31130;SDS011;20292;50.944;4.034;2022-12-11T07:34:38;58.92;;;26.90;;
31130;SDS011;20292;50.944;4.034;2022-12-11T07:37:04;57.60;;;26.77;;
31130;SDS011;20292;50.944;4.034;2022-12-11T07:39:29;60.45;;;27.25;;
31130;SDS011;20292;50.944;4.034;2022-12-11T07:41:55;59.05;;;26.50;;
31130;SDS011;20292;50.944;4.034;2022-12-11T07:44:20;62.78;;;27.38;;
31130;SDS011;20292;50.944;4.034;2022-12-11T07:46:46;60.53;;;27.80;;
31130;SDS011;20292;50.944;4.034;2022-12-11T07:49:11;58.03;;;26.80;;
31130;SDS011;20292;50.944;4.034;2022-12-11T07:51:37;55.90;;;25.52;;
31130;SDS011;20292;50.944;4.034;2022-12-11T07:54:07;60.67;;;25.67;;
31130;SDS011;20292;50.944;4.034;2022-12-11T07:56:36;61.90;;;25.65;;
31130;SDS011;20292;50.944;4.034;2022-12-11T07:59:03;58.63;;;26.05;;
31130;SDS011;20292;50.944;4.034;2022-12-11T08:01:30;58.03;;;25.67;;
31130;SDS011;20292;50.944;4.034;2022-12-11T08:03:59;65.55;;;26.45;;
31130;SDS011;20292;50.944;4.034;2022-12-11T08:06:26;64.47;;;28.33;;
31130;SDS011;20292;50.944;4.034;2022-12-11T08:08:53;66.43;;;28.65;;
31130;SDS011;20292;50.944;4.034;2022-12-11T08:11:19;65.30;;;27.60;;
31130;SDS011;20292;50.944;4.034;2022-12-11T08:13:45;63.10;;;26.70;;
31130;SDS011;20292;50.944;4.034;2022-12-11T08:16:11;67.10;;;27.83;;
31130;SDS011;20292;50.944;4.034;2022-12-11T08:18:38;63.17;;;26.98;;
31130;SDS011;20292;50.944;4.034;2022-12-11T08:21:05;62.58;;;27.27;;
31130;SDS011;20292;50.944;4.034;2022-12-11T08:23:39;60.15;;;27.08;;
31130;SDS011;20292;50.944;4.034;2022-12-11T08:26:05;66.38;;;27.67;;
31130;SDS011;20292;50.944;4.034;2022-12-11T08:28:32;64.43;;;29.20;;
31130;SDS011;20292;50.944;4.034;2022-12-11T08:30:58;66.75;;;25.98;;
31130;SDS011;20292;50.944;4.034;2022-12-11T08:33:24;68.05;;;27.77;;
31130;SDS011;20292;50.944;4.034;2022-12-11T08:35:49;61.40;;;26.75;;
31130;SDS011;20292;50.944;4.034;2022-12-11T08:38:15;57.95;;;24.92;;
31130;SDS011;20292;50.944;4.034;2022-12-11T08:40:41;56.63;;;25.20;;
31130;SDS011;20292;50.944;4.034;2022-12-11T08:43:06;61.95;;;24.92;;
31130;SDS011;20292;50.944;4.034;2022-12-11T08:45:32;60.10;;;24.98;;
31130;SDS011;20292;50.944;4.034;2022-12-11T08:47:58;63.70;;;25.63;;
31130;SDS011;20292;50.944;4.034;2022-12-11T08:50:24;60.22;;;25.33;;
31130;SDS011;20292;50.944;4.034;2022-12-11T08:52:49;59.03;;;26.33;;
31130;SDS011;20292;50.944;4.034;2022-12-11T08:55:15;62.50;;;25.63;;
31130;SDS011;20292;50.944;4.034;2022-12-11T08:57:41;61.22;;;24.52;;
31130;SDS011;20292;50.944;4.034;2022-12-11T09:00:07;61.50;;;24.73;;
31130;SDS011;20292;50.944;4.034;2022-12-11T09:02:36;61.67;;;25.98;;
31130;SDS011;20292;50.944;4.034;2022-12-11T09:05:02;64.60;;;24.95;;
31130;SDS011;20292;50.944;4.034;2022-12-11T09:07:31;62.78;;;24.85;;
31130;SDS011;20292;50.944;4.034;2022-12-11T09:10:01;62.63;;;25.58;;
31130;SDS011;20292;50.944;4.034;2022-12-11T09:12:26;61.15;;;25.30;;
31130;SDS011;20292;50.944;4.034;2022-12-11T09:14:52;60.28;;;24.73;;
31130;SDS011;20292;50.944;4.034;2022-12-11T09:17:18;62.78;;;25.17;;
31130;SDS011;20292;50.944;4.034;2022-12-11T09:19:44;60.92;;;25.02;;
31130;SDS011;20292;50.944;4.034;2022-12-11T09:22:09;62.75;;;25.80;;
31130;SDS011;20292;50.944;4.034;2022-12-11T09:24:36;62.05;;;26.83;;
31130;SDS011;20292;50.944;4.034;2022-12-11T09:27:02;69.28;;;26.10;;
31130;SDS011;20292;50.944;4.034;2022-12-11T09:29:29;65.82;;;26.08;;
31130;SDS011;20292;50.944;4.034;2022-12-11T09:31:54;64.55;;;27.05;;
31130;SDS011;20292;50.944;4.034;2022-12-11T09:34:20;65.70;;;25.27;;
31130;SDS011;20292;50.944;4.034;2022-12-11T09:36:45;62.97;;;27.25;;
31130;SDS011;20292;50.944;4.034;2022-12-11T09:39:12;60.92;;;25.27;;
31130;SDS011;20292;50.944;4.034;2022-12-11T09:44:51;62.97;;;24.92;;
31130;SDS011;20292;50.944;4.034;2022-12-11T09:49:57;68.70;;;26.40;;
31130;SDS011;20292;50.944;4.034;2022-12-11T09:52:34;60.22;;;24.60;;
31130;SDS011;20292;50.944;4.034;2022-12-11T09:55:11;60.67;;;24.40;;
31130;SDS011;20292;50.944;4.034;2022-12-11T10:08:38;58.95;;;23.92;;
31130;SDS011;20292;50.944;4.034;2022-12-11T10:17:21;63.10;;;24.55;;
31130;SDS011;20292;50.944;4.034;2022-12-11T10:19:51;54.03;;;22.17;;
31130;SDS011;20292;50.944;4.034;2022-12-11T10:22:28;56.17;;;22.48;;
31130;SDS011;20292;50.944;4.034;2022-12-11T10:24:57;63.78;;;24.48;;
31130;SDS011;20292;50.944;4.034;2022-12-11T10:27:29;57.85;;;23.83;;
31130;SDS011;20292;50.944;4.034;2022-12-11T10:35:18;62.65;;;22.80;;
31130;SDS011;20292;50.944;4.034;2022-12-11T10:37:51;55.28;;;23.30;;
31130;SDS011;20292;50.944;4.034;2022-12-11T10:40:23;50.00;;;21.23;;
31130;SDS011;20292;50.944;4.034;2022-12-11T10:42:50;61.40;;;23.35;;
31130;SDS011;20292;50.944;4.034;2022-12-11T10:45:17;53.97;;;22.30;;
31130;SDS011;20292;50.944;4.034;2022-12-11T10:47:43;60.72;;;21.88;;
31130;SDS011;20292;50.944;4.034;2022-12-11T10:50:23;52.50;;;22.02;;
31130;SDS011;20292;50.944;4.034;2022-12-11T10:52:50;53.97;;;22.20;;
31130;SDS011;20292;50.944;4.034;2022-12-11T10:57:56;52.58;;;21.23;;
31130;SDS011;20292;50.944;4.034;2022-12-11T11:00:45;54.47;;;21.42;;
31130;SDS011;20292;50.944;4.034;2022-12-11T11:03:19;54.05;;;21.65;;
31130;SDS011;20292;50.944;4.034;2022-12-11T11:05:47;48.15;;;19.75;;
31130;SDS011;20292;50.944;4.034;2022-12-11T11:10:59;54.97;;;21.80;;
31130;SDS011;20292;50.944;4.034;2022-12-11T11:13:30;49.50;;;20.35;;
31130;SDS011;20292;50.944;4.034;2022-12-11T11:16:06;51.95;;;19.80;;
31130;SDS011;20292;50.944;4.034;2022-12-11T11:18:35;50.75;;;21.40;;
31130;SDS011;20292;50.944;4.034;2022-12-11T11:21:03;50.75;;;21.35;;
31130;SDS011;20292;50.944;4.034;2022-12-11T11:23:29;49.42;;;20.52;;
31130;SDS011;20292;50.944;4.034;2022-12-11T11:25:56;57.90;;;21.38;;
31130;SDS011;20292;50.944;4.034;2022-12-11T11:28:34;52.30;;;19.55;;
31130;SDS011;20292;50.944;4.034;2022-12-11T11:31:02;51.47;;;19.77;;
31130;SDS011;20292;50.944;4.034;2022-12-11T11:33:29;52.70;;;20.95;;
31130;SDS011;20292;50.944;4.034;2022-12-11T11:35:58;49.55;;;20.63;;
31130;SDS011;20292;50.944;4.034;2022-12-11T11:41:16;42.53;;;17.70;;
31130;SDS011;20292;50.944;4.034;2022-12-11T11:44:12;45.00;;;16.65;;
31130;SDS011;20292;50.944;4.034;2022-12-11T11:46:52;39.50;;;16.73;;
31130;SDS011;20292;50.944;4.034;2022-12-11T11:49:29;51.75;;;18.60;;
31130;SDS011;20292;50.944;4.034;2022-12-11T11:54:55;45.35;;;18.65;;
31130;SDS011;20292;50.944;4.034;2022-12-11T12:00:13;50.15;;;20.50;;
31130;SDS011;20292;50.944;4.034;2022-12-11T12:02:40;52.55;;;20.13;;
31130;SDS011;20292;50.944;4.034;2022-12-11T12:05:08;52.65;;;21.20;;
31130;SDS011;20292;50.944;4.034;2022-12-11T12:07:43;50.13;;;22.00;;
31130;SDS011;20292;50.944;4.034;2022-12-11T12:10:35;47.67;;;20.85;;
31130;SDS011;20292;50.944;4.034;2022-12-11T12:13:12;52.67;;;21.63;;
31130;SDS011;20292;50.944;4.034;2022-12-11T12:15:55;49.05;;;21.40;;
31130;SDS011;20292;50.944;4.034;2022-12-11T12:21:11;52.83;;;22.25;;
31130;SDS011;20292;50.944;4.034;2022-12-11T12:24:01;51.53;;;21.65;;
31130;SDS011;20292;50.944;4.034;2022-12-11T12:26:43;45.15;;;20.15;;
31130;SDS011;20292;50.944;4.034;2022-12-11T12:37:19;53.58;;;23.48;;
31130;SDS011;20292;50.944;4.034;2022-12-11T12:40:13;58.97;;;23.70;;
31130;SDS011;20292;50.944;4.034;2022-12-11T12:42:48;50.60;;;21.58;;
31130;SDS011;20292;50.944;4.034;2022-12-11T12:45:20;65.05;;;22.67;;
31130;SDS011;20292;50.944;4.034;2022-12-11T12:47:58;55.08;;;23.45;;
31130;SDS011;20292;50.944;4.034;2022-12-11T12:50:25;56.42;;;24.30;;
31130;SDS011;20292;50.944;4.034;2022-12-11T12:53:01;54.33;;;23.17;;
31130;SDS011;20292;50.944;4.034;2022-12-11T12:55:30;54.67;;;23.42;;
31130;SDS011;20292;50.944;4.034;2022-12-11T12:57:58;56.67;;;24.27;;
31130;SDS011;20292;50.944;4.034;2022-12-11T13:00:35;53.10;;;23.42;;
31130;SDS011;20292;50.944;4.034;2022-12-11T13:03:13;56.50;;;23.42;;
31130;SDS011;20292;50.944;4.034;2022-12-11T13:05:43;51.40;;;23.23;;
31130;SDS011;20292;50.944;4.034;2022-12-11T13:11:14;54.00;;;22.85;;
31130;SDS011;20292;50.944;4.034;2022-12-11T13:13:43;50.95;;;22.80;;
31130;SDS011;20292;50.944;4.034;2022-12-11T13:18:40;51.45;;;22.13;;
31130;SDS011;20292;50.944;4.034;2022-12-11T13:23:51;48.45;;;22.45;;
31130;SDS011;20292;50.944;4.034;2022-12-11T13:26:27;49.08;;;21.65;;
31130;SDS011;20292;50.944;4.034;2022-12-11T13:28:54;54.17;;;22.23;;
31130;SDS011;20292;50.944;4.034;2022-12-11T13:31:31;49.10;;;21.42;;
31130;SDS011;20292;50.944;4.034;2022-12-11T13:34:06;45.25;;;21.15;;
31130;SDS011;20292;50.944;4.034;2022-12-11T13:36:45;44.13;;;21.23;;
31130;SDS011;20292;50.944;4.034;2022-12-11T13:39:26;46.80;;;20.95;;
31130;SDS011;20292;50.944;4.034;2022-12-11T13:42:01;42.65;;;19.95;;
31130;SDS011;20292;50.944;4.034;2022-12-11T13:47:10;39.53;;;18.58;;
31130;SDS011;20292;50.944;4.034;2022-12-11T13:49:40;36.50;;;17.08;;
31130;SDS011;20292;50.944;4.034;2022-12-11T13:52:14;38.58;;;19.23;;
31130;SDS011;20292;50.944;4.034;2022-12-11T13:54:46;36.50;;;17.90;;
31130;SDS011;20292;50.944;4.034;2022-12-11T13:57:22;39.60;;;18.65;;
31130;SDS011;20292;50.944;4.034;2022-12-11T13:59:55;36.15;;;18.67;;
31130;SDS011;20292;50.944;4.034;2022-12-11T14:04:50;35.65;;;17.27;;
31130;SDS011;20292;50.944;4.034;2022-12-11T14:07:22;34.67;;;17.52;;
31130;SDS011;20292;50.944;4.034;2022-12-11T14:09:52;31.73;;;16.77;;
31130;SDS011;20292;50.944;4.034;2022-12-11T14:12:23;32.38;;;17.60;;
31130;SDS011;20292;50.944;4.034;2022-12-11T14:14:58;35.97;;;18.88;;
31130;SDS011;20292;50.944;4.034;2022-12-11T14:17:27;34.83;;;18.90;;
31130;SDS011;20292;50.944;4.034;2022-12-11T14:19:58;57.20;;;28.20;;
31130;SDS011;20292;50.944;4.034;2022-12-11T14:22:26;39.95;;;19.98;;
31130;SDS011;20292;50.944;4.034;2022-12-11T14:24:54;36.85;;;19.40;;
31130;SDS011;20292;50.944;4.034;2022-12-11T14:27:22;38.70;;;19.33;;
31130;SDS011;20292;50.944;4.034;2022-12-11T14:29:48;43.90;;;20.08;;
31130;SDS011;20292;50.944;4.034;2022-12-11T14:32:18;38.88;;;19.60;;
31130;SDS011;20292;50.944;4.034;2022-12-11T14:34:50;43.22;;;20.13;;
31130;SDS011;20292;50.944;4.034;2022-12-11T14:37:18;41.22;;;19.75;;
31130;SDS011;20292;50.944;4.034;2022-12-11T14:39:58;40.72;;;20.73;;
31130;SDS011;20292;50.944;4.034;2022-12-11T14:42:31;44.17;;;21.35;;
31130;SDS011;20292;50.944;4.034;2022-12-11T14:45:05;42.13;;;19.60;;
31130;SDS011;20292;50.944;4.034;2022-12-11T14:47:44;37.00;;;19.13;;
31130;SDS011;20292;50.944;4.034;2022-12-11T14:52:47;43.50;;;20.58;;
31130;SDS011;20292;50.944;4.034;2022-12-11T14:55:21;40.78;;;19.83;;
31130;SDS011;20292;50.944;4.034;2022-12-11T14:57:52;40.58;;;19.90;;
31130;SDS011;20292;50.944;4.034;2022-12-11T15:00:25;41.00;;;19.63;;
31130;SDS011;20292;50.944;4.034;2022-12-11T15:02:56;39.45;;;19.75;;
31130;SDS011;20292;50.944;4.034;2022-12-11T15:05:34;41.45;;;19.67;;
31130;SDS011;20292;50.944;4.034;2022-12-11T15:10:35;40.53;;;21.30;;
31130;SDS011;20292;50.944;4.034;2022-12-11T15:13:07;36.42;;;19.88;;
31130;SDS011;20292;50.944;4.034;2022-12-11T15:15:37;38.60;;;20.10;;
31130;SDS011;20292;50.944;4.034;2022-12-11T15:20:42;34.28;;;17.58;;
31130;SDS011;20292;50.944;4.034;2022-12-11T15:23:07;39.63;;;19.23;;
31130;SDS011;20292;50.944;4.034;2022-12-11T15:25:33;34.28;;;18.42;;
31130;SDS011;20292;50.944;4.034;2022-12-11T15:27:59;34.83;;;17.67;;
31130;SDS011;20292;50.944;4.034;2022-12-11T15:30:27;40.47;;;19.77;;
31130;SDS011;20292;50.944;4.034;2022-12-11T15:35:36;31.70;;;17.10;;
31130;SDS011;20292;50.944;4.034;2022-12-11T15:38:03;33.42;;;18.67;;
31130;SDS011;20292;50.944;4.034;2022-12-11T15:40:28;41.95;;;21.30;;
31130;SDS011;20292;50.944;4.034;2022-12-11T15:42:54;34.70;;;19.90;;
31130;SDS011;20292;50.944;4.034;2022-12-11T15:45:22;36.30;;;19.98;;
31130;SDS011;20292;50.944;4.034;2022-12-11T15:47:50;36.60;;;18.20;;
31130;SDS011;20292;50.944;4.034;2022-12-11T15:52:49;39.72;;;19.77;;